Time;durP1;ratioP1;P1;durP2;ratioP2;P2;SDS_P1;SDS_P2;PMS_P1;PMS_P2;Temp;Humidity;BMP_temperature;BMP_pressure;BME280_temperature;BME280_humidity;BME280_pressure;Samples;Min_cycle;Max_cycle;Signal;HPM_P1;HPM_P2
2022/04/05 00:01:56;;;;;;;;;;;;;;;;;;5053136;28;860;-61
2022/04/05 00:04:21;;;;;;;;;;;;;;;;;;5034602;28;864;-60
2022/04/05 00:06:46;;;;;;;;;;;;;;;;;;5053435;28;877;-60
2022/04/05 00:09:12;;;;;;;;;;;;;;;;;;5052677;28;844;-60
2022/04/05 00:11:37;;;;;;;;;;;;;;;;;;5053314;28;821;-61
2022/04/05 00:14:02;;;;;;;;;;;;;;;;;;5052846;28;880;-60
2022/04/05 00:16:28;;;;;;;;;;;;;;;;;;5034811;28;1906;-60
2022/04/05 00:18:53;;;;;;;;;;;;;;;;;;5052591;28;949;-60
2022/04/05 00:21:18;;;;;;;;;;;;;;;;;;5052998;28;943;-61
2022/04/05 00:23:44;;;;;;;;;;;;;;;;;;5034441;28;893;-60
2022/04/05 00:26:09;;;;;;;;;;;;;;;;;;5052104;28;1272;-61
2022/04/05 00:28:34;;;;;;;;;;;;;;;;;;5051444;28;1110;-60
2022/04/05 00:30:59;;;;;;;;;;;;;;;;;;5051386;28;994;-60
2022/04/05 00:33:25;;;;;;;;;;;;;;;;;;5052404;28;951;-60
2022/04/05 00:35:51;;;;;;;;;;;;;;;;;;5052900;28;1898;-60
2022/04/05 00:38:16;;;;;;;;;;;;;;;;;;5052508;28;864;-60
2022/04/05 00:40:42;;;;;;;;;;;;;;;;;;5052276;28;1200;-60
2022/04/05 00:43:07;;;;;;;;;;;;;;;;;;5052724;28;829;-60
2022/04/05 00:45:33;;;;;;;;;;;;;;;;;;5052495;28;801;-62
2022/04/05 00:47:59;;;;;;;;;;;;;;;;;;5053038;28;790;-59
2022/04/05 00:50:25;;;;;;;;;;;;;;;;;;5052380;28;774;-61
2022/04/05 00:52:51;;;;;;;;;;;;;;;;;;5033805;28;1302;-61
2022/04/05 00:55:21;;;;;;;;;;;;;;;;;;5052156;28;1965;-61
2022/04/05 00:57:48;;;;;;;;;;;;;;;;;;5052454;28;1011;-61
2022/04/05 01:00:14;;;;;;;;;;;;;;;;;;5050991;28;824;-61
2022/04/05 01:02:39;;;;;;;;;;;;;;;;;;5052321;28;857;-61
2022/04/05 01:05:06;;;;;;;;;;;;;;;;;;5051925;28;883;-61
2022/04/05 01:07:32;;;;;;;;;;;;;;;;;;5033540;28;928;-61
2022/04/05 01:09:58;;;;;;;;;;;;;;;;;;5051372;28;826;-59
2022/04/05 01:12:23;;;;;;;;;;;;;;;;;;5051555;28;896;-61
2022/04/05 01:14:49;;;;;;;;;;;;;;;;;;5051473;28;1889;-59
2022/04/05 01:17:16;;;;;;;;;;;;;;;;;;5051364;28;829;-61
2022/04/05 01:19:41;;;;;;;;;;;;;;;;;;5051482;28;880;-61
2022/04/05 01:22:07;;;;;;;;;;;;;;;;;;5051399;28;825;-58
2022/04/05 01:24:32;;;;;;;;;;;;;;;;;;5050975;28;892;-61
2022/04/05 01:26:58;;;;;;;;;;;;;;;;;;5051641;28;1079;-61
2022/04/05 01:29:25;;;;;;;;;;;;;;;;;;5051292;28;944;-61
2022/04/05 01:32:00;;;;;;;;;;;;;;;;;;5051337;28;864;-59
2022/04/05 01:34:27;;;;;;;;;;;;;;;;;;5050982;28;881;-61
2022/04/05 01:36:53;;;;;;;;;;;;;;;;;;5051056;28;1898;-58
2022/04/05 01:39:20;;;;;;;;;;;;;;;;;;5051029;28;817;-61
2022/04/05 01:41:46;;;;;;;;;;;;;;;;;;5032817;28;1034;-61
2022/04/05 01:44:13;;;;;;;;;;;;;;;;;;5051026;28;1157;-61
2022/04/05 01:46:38;;;;;;;;;;;;;;;;;;5050589;28;975;-61
2022/04/05 01:49:07;;;;;;;;;;;;;;;;;;5050908;28;830;-62
2022/04/05 01:51:34;;;;;;;;;;;;;;;;;;5049717;28;895;-61
2022/04/05 01:54:02;;;;;;;;;;;;;;;;;;5050067;28;844;-61
2022/04/05 01:56:28;;;;;;;;;;;;;;;;;;5050970;28;1909;-61
2022/04/05 01:58:53;;;;;;;;;;;;;;;;;;5050480;28;999;-61
2022/04/05 02:01:18;;;;;;;;;;;;;;;;;;5051172;28;920;-59
2022/04/05 02:03:44;;;;;;;;;;;;;;;;;;5050666;28;812;-60
2022/04/05 02:06:10;;;;;;;;;;;;;;;;;;5050869;28;987;-60
2022/04/05 02:08:35;;;;;;;;;;;;;;;;;;5050560;28;848;-61
2022/04/05 02:11:00;;;;;;;;;;;;;;;;;;5050546;28;908;-61
2022/04/05 02:13:26;;;;;;;;;;;;;;;;;;5050688;28;937;-60
2022/04/05 02:15:51;;;;;;;;;;;;;;;;;;5050628;28;1910;-60
2022/04/05 02:18:16;;;;;;;;;;;;;;;;;;5050624;28;1039;-61
2022/04/05 02:20:42;;;;;;;;;;;;;;;;;;5050510;28;805;-61
2022/04/05 02:23:08;;;;;;;;;;;;;;;;;;5051114;28;912;-61
2022/04/05 02:25:33;;;;;;;;;;;;;;;;;;5050653;28;904;-60
2022/04/05 02:27:58;;;;;;;;;;;;;;;;;;5050553;28;868;-60
2022/04/05 02:30:23;;;;;;;;;;;;;;;;;;5050836;28;814;-60
2022/04/05 02:32:49;;;;;;;;;;;;;;;;;;5050523;28;1121;-60
2022/04/05 02:35:14;;;;;;;;;;;;;;;;;;5050493;28;1882;-60
2022/04/05 02:37:39;;;;;;;;;;;;;;;;;;5050382;28;880;-61
2022/04/05 02:40:05;;;;;;;;;;;;;;;;;;5050467;28;932;-60
2022/04/05 02:42:30;;;;;;;;;;;;;;;;;;5050393;28;1053;-60
2022/04/05 02:44:56;;;;;;;;;;;;;;;;;;5050551;28;920;-61
2022/04/05 02:47:22;;;;;;;;;;;;;;;;;;5050630;28;876;-60
2022/04/05 02:49:47;;;;;;;;;;;;;;;;;;5016163;28;928;-60
2022/04/05 02:52:15;;;;;;;;;;;;;;;;;;5066322;28;860;-61
2022/04/05 02:54:40;;;;;;;;;;;;;;;;;;5050273;28;856;-61
2022/04/05 02:57:06;;;;;;;;;;;;;;;;;;5050434;28;1978;-61
2022/04/05 02:59:31;;;;;;;;;;;;;;;;;;5050867;28;838;-61
2022/04/05 03:01:56;;;;;;;;;;;;;;;;;;5050540;28;814;-61
2022/04/05 03:04:22;;;;;;;;;;;;;;;;;;5050779;28;939;-61
2022/04/05 03:06:47;;;;;;;;;;;;;;;;;;5050513;28;887;-61
2022/04/05 03:09:12;;;;;;;;;;;;;;;;;;5050656;28;999;-61
2022/04/05 03:11:37;;;;;;;;;;;;;;;;;;5050139;28;1004;-61
2022/04/05 03:14:03;;;;;;;;;;;;;;;;;;5032396;28;837;-61
2022/04/05 03:16:28;;;;;;;;;;;;;;;;;;5050856;28;1957;-61
2022/04/05 03:18:54;;;;;;;;;;;;;;;;;;5050670;28;781;-60
2022/04/05 03:21:19;;;;;;;;;;;;;;;;;;5050575;28;861;-61
2022/04/05 03:23:44;;;;;;;;;;;;;;;;;;5052654;28;931;-61
2022/04/05 03:26:10;;;;;;;;;;;;;;;;;;5053561;28;896;-60
2022/04/05 03:28:35;;;;;;;;;;;;;;;;;;5053577;28;916;-61
2022/04/05 03:31:00;;;;;;;;;;;;;;;;;;5053713;28;971;-60
2022/04/05 03:33:25;;;;;;;;;;;;;;;;;;5053775;28;896;-61
2022/04/05 03:35:51;;;;;;;;;;;;;;;;;;5053023;28;1965;-61
2022/04/05 04:13:07;;;;;;;;;;;;;;;;;;5072269;22;1724;-60
2022/04/05 04:15:32;;;;;;;;;;;;;;;;;;5053493;28;1906;-59
2022/04/05 04:17:58;;;;;;;;;;;;;;;;;;5053490;28;967;-59
2022/04/05 04:20:23;;;;;;;;;;;;;;;;;;5053883;28;983;-60
2022/04/05 04:22:48;;;;;;;;;;;;;;;;;;5052570;28;763;-59
2022/04/05 04:25:13;;;;;;;;;;;;;;;;;;5053788;28;824;-60
2022/04/05 04:27:39;;;;;;;;;;;;;;;;;;5053461;28;818;-59
2022/04/05 04:30:04;;;;;;;;;;;;;;;;;;5053244;28;872;-60
2022/04/05 04:32:29;;;;;;;;;;;;;;;;;;5053411;28;856;-61
2022/04/05 04:34:55;;;;;;;;;;;;;;;;;;5051065;28;763;-60
2022/04/05 04:37:20;;;;;;;;;;;;;;;;;;5053524;28;1906;-59
2022/04/05 04:39:45;;;;;;;;;;;;;;;;;;5053498;28;904;-60
2022/04/05 04:42:12;;;;;;;;;;;;;;;;;;5053205;28;924;-60
2022/04/05 04:44:37;;;;;;;;;;;;;;;;;;5053159;28;824;-60
2022/04/05 04:47:02;;;;;;;;;;;;;;;;;;5053223;28;852;-60
2022/04/05 04:49:28;;;;;;;;;;;;;;;;;;5052953;28;793;-59
2022/04/05 04:51:53;;;;;;;;;;;;;;;;;;5052853;28;848;-60
2022/04/05 04:54:18;;;;;;;;;;;;;;;;;;5052990;28;809;-60
2022/04/05 04:56:44;;;;;;;;;;;;;;;;;;5052726;28;1901;-61
2022/04/05 04:59:09;;;;;;;;;;;;;;;;;;5052590;28;889;-61
2022/04/05 05:01:34;;;;;;;;;;;;;;;;;;5052930;28;1058;-61
2022/04/05 05:04:00;;;;;;;;;;;;;;;;;;5052585;28;908;-60
2022/04/05 05:06:25;;;;;;;;;;;;;;;;;;5052564;28;860;-61
2022/04/05 05:08:51;;;;;;;;;;;;;;;;;;5052805;28;770;-61
2022/04/05 05:11:16;;;;;;;;;;;;;;;;;;5052605;28;992;-61
2022/04/05 05:13:42;;;;;;;;;;;;;;;;;;5052551;28;1188;-61
2022/04/05 05:16:07;;;;;;;;;;;;;;;;;;5052570;28;1910;-60
2022/04/05 05:18:32;;;;;;;;;;;;;;;;;;5052261;28;928;-61
2022/04/05 05:20:58;;;;;;;;;;;;;;;;;;5050945;28;1203;-61
2022/04/05 05:23:23;;;;;;;;;;;;;;;;;;5032324;28;837;-60
2022/04/05 05:25:49;;;;;;;;;;;;;;;;;;5032086;28;837;-61
2022/04/05 05:28:14;;;;;;;;;;;;;;;;;;5031801;28;904;-60
2022/04/05 05:30:40;;;;;;;;;;;;;;;;;;5032033;28;932;-61
2022/04/05 05:33:05;;;;;;;;;;;;;;;;;;5032475;28;826;-61
2022/04/05 05:35:30;;;;;;;;;;;;;;;;;;5031869;28;1960;-61
2022/04/05 05:37:56;;;;;;;;;;;;;;;;;;5030650;28;913;-61
2022/04/05 05:40:22;;;;;;;;;;;;;;;;;;5032232;28;952;-60
2022/04/05 05:42:51;;;;;;;;;;;;;;;;;;5031846;28;895;-60
2022/04/05 05:45:17;;;;;;;;;;;;;;;;;;5031280;28;770;-60
2022/04/05 05:47:42;;;;;;;;;;;;;;;;;;5031607;28;928;-61
2022/04/05 05:50:10;;;;;;;;;;;;;;;;;;5031827;28;853;-60
2022/04/05 05:52:35;;;;;;;;;;;;;;;;;;5031477;28;1145;-61
2022/04/05 05:55:00;;;;;;;;;;;;;;;;;;5031527;28;1902;-61
2022/04/05 05:57:26;;;;;;;;;;;;;;;;;;5031310;28;876;-60
2022/04/05 05:59:51;;;;;;;;;;;;;;;;;;5032125;28;833;-60
2022/04/05 06:02:16;;;;;;;;;;;;;;;;;;5031339;28;858;-60
2022/04/05 06:04:42;;;;;;;;;;;;;;;;;;5031858;28;904;-61
2022/04/05 06:07:07;;;;;;;;;;;;;;;;;;5031300;28;912;-61
2022/04/05 06:09:33;;;;;;;;;;;;;;;;;;5028742;28;1287;-60
2022/04/05 06:11:58;;;;;;;;;;;;;;;;;;5030441;28;1079;-61
2022/04/05 06:14:24;;;;;;;;;;;;;;;;;;5031097;28;1273;-60
2022/04/05 06:16:49;;;;;;;;;;;;;;;;;;5029702;28;1914;-61
2022/04/05 06:19:14;;;;;;;;;;;;;;;;;;5031366;28;1086;-60
2022/04/05 06:21:40;;;;;;;;;;;;;;;;;;5031013;28;856;-61
2022/04/05 06:24:05;;;;;;;;;;;;;;;;;;5031084;28;1140;-61
2022/04/05 06:26:30;;;;;;;;;;;;;;;;;;5030983;28;802;-60
2022/04/05 06:28:56;;;;;;;;;;;;;;;;;;5031084;28;928;-61
2022/04/05 06:31:22;;;;;;;;;;;;;;;;;;5031410;28;798;-61
2022/04/05 06:33:47;;;;;;;;;;;;;;;;;;5031192;28;932;-61
2022/04/05 06:36:12;;;;;;;;;;;;;;;;;;5030926;28;1970;-61
2022/04/05 06:38:38;;;;;;;;;;;;;;;;;;5029418;28;1265;-61
2022/04/05 06:41:03;;;;;;;;;;;;;;;;;;5031409;28;979;-61
2022/04/05 06:43:29;;;;;;;;;;;;;;;;;;5030872;28;1142;-61
2022/04/05 06:45:54;;;;;;;;;;;;;;;;;;5031317;28;833;-60
2022/04/05 06:48:20;;;;;;;;;;;;;;;;;;5031459;28;809;-60
2022/04/05 06:50:47;;;;;;;;;;;;;;;;;;5031221;28;1044;-61
2022/04/05 06:53:12;;;;;;;;;;;;;;;;;;5031034;28;1580;-61
2022/04/05 06:55:38;;;;;;;;;;;;;;;;;;5050585;28;1968;-60
2022/04/05 06:58:04;;;;;;;;;;;;;;;;;;5052744;28;859;-61
2022/04/05 07:00:29;;;;;;;;;;;;;;;;;;5054774;28;932;-61
2022/04/05 07:02:55;;;;;;;;;;;;;;;;;;5054711;28;821;-61
2022/04/05 07:05:21;;;;;;;;;;;;;;;;;;5054875;28;872;-61
2022/04/05 07:07:46;;;;;;;;;;;;;;;;;;5054502;28;944;-61
2022/04/05 07:10:14;;;;;;;;;;;;;;;;;;5054759;28;1245;-61
2022/04/05 07:12:40;;;;;;;;;;;;;;;;;;5054546;28;1168;-61
2022/04/05 07:15:06;;;;;;;;;;;;;;;;;;5052957;28;1986;-61
2022/04/05 07:17:31;;;;;;;;;;;;;;;;;;5053976;28;1134;-61
2022/04/05 07:19:56;;;;;;;;;;;;;;;;;;5054455;28;1152;-61
2022/04/05 07:22:22;;;;;;;;;;;;;;;;;;5053316;28;1341;-61
2022/04/05 07:24:47;;;;;;;;;;;;;;;;;;5054413;28;766;-60
2022/04/05 07:27:13;;;;;;;;;;;;;;;;;;5054453;28;891;-61
2022/04/05 07:29:38;;;;;;;;;;;;;;;;;;5054298;28;967;-61
2022/04/05 07:32:04;;;;;;;;;;;;;;;;;;5054337;28;840;-60
2022/04/05 07:34:29;;;;;;;;;;;;;;;;;;5054027;28;914;-61
2022/04/05 07:36:54;;;;;;;;;;;;;;;;;;5054508;28;1988;-59
2022/04/05 07:39:21;;;;;;;;;;;;;;;;;;5054115;28;805;-60
2022/04/05 07:41:47;;;;;;;;;;;;;;;;;;5054070;28;835;-59
2022/04/05 07:44:12;;;;;;;;;;;;;;;;;;5054409;28;758;-60
2022/04/05 07:46:38;;;;;;;;;;;;;;;;;;5053722;28;864;-59
2022/04/05 07:49:03;;;;;;;;;;;;;;;;;;5053731;28;904;-60
2022/04/05 07:51:28;;;;;;;;;;;;;;;;;;5053917;28;872;-59
2022/04/05 07:53:53;;;;;;;;;;;;;;;;;;5054225;28;781;-59
2022/04/05 07:56:19;;;;;;;;;;;;;;;;;;5053826;28;1962;-59
2022/04/05 07:58:44;;;;;;;;;;;;;;;;;;5053822;28;765;-59
2022/04/05 08:01:09;;;;;;;;;;;;;;;;;;5053835;28;845;-59
2022/04/05 08:03:35;;;;;;;;;;;;;;;;;;5054193;28;1031;-59
2022/04/05 08:06:01;;;;;;;;;;;;;;;;;;5053876;28;1022;-59
2022/04/05 08:08:26;;;;;;;;;;;;;;;;;;5053513;28;991;-59
2022/04/05 08:10:51;;;;;;;;;;;;;;;;;;5053753;28;923;-59
2022/04/05 08:13:17;;;;;;;;;;;;;;;;;;5053228;28;1146;-59
2022/04/05 08:15:43;;;;;;;;;;;;;;;;;;5051795;28;1909;-59
2022/04/05 08:18:11;;;;;;;;;;;;;;;;;;5053378;28;862;-60
2022/04/05 08:20:39;;;;;;;;;;;;;;;;;;5053044;28;810;-59
2022/04/05 08:23:04;;;;;;;;;;;;;;;;;;5051994;28;1223;-60
2022/04/05 08:25:29;;;;;;;;;;;;;;;;;;5053456;28;782;-59
2022/04/05 08:27:55;;;;;;;;;;;;;;;;;;5053089;28;904;-60
2022/04/05 08:30:20;;;;;;;;;;;;;;;;;;5053799;28;825;-59
2022/04/05 08:32:46;;;;;;;;;;;;;;;;;;5053142;28;829;-60
2022/04/05 08:35:13;;;;;;;;;;;;;;;;;;5051570;28;1985;-59
2022/04/05 08:37:39;;;;;;;;;;;;;;;;;;5053505;28;951;-59
2022/04/05 08:40:08;;;;;;;;;;;;;;;;;;5053282;28;856;-59
2022/04/05 08:42:35;;;;;;;;;;;;;;;;;;5053393;28;849;-59
2022/04/05 08:45:01;;;;;;;;;;;;;;;;;;5053033;28;808;-59
2022/04/05 08:47:28;;;;;;;;;;;;;;;;;;5053451;28;957;-59
2022/04/05 08:49:54;;;;;;;;;;;;;;;;;;5052950;28;912;-59
2022/04/05 08:52:20;;;;;;;;;;;;;;;;;;5053597;28;915;-59
2022/04/05 08:54:45;;;;;;;;;;;;;;;;;;5052804;28;1023;-59
2022/04/05 08:57:10;;;;;;;;;;;;;;;;;;5052715;28;1981;-59
2022/04/05 08:59:36;;;;;;;;;;;;;;;;;;5053085;28;821;-59
2022/04/05 09:02:01;;;;;;;;;;;;;;;;;;5051185;28;1575;-59
2022/04/05 09:04:31;;;;;;;;;;;;;;;;;;5052806;28;856;-59
2022/04/05 09:06:57;;;;;;;;;;;;;;;;;;5052303;28;904;-59
2022/04/05 09:09:28;;;;;;;;;;;;;;;;;;5053155;28;951;-59
2022/04/05 09:11:53;;;;;;;;;;;;;;;;;;5051299;28;912;-60
2022/04/05 09:14:25;;;;;;;;;;;;;;;;;;5052660;28;1104;-59
2022/04/05 09:17:08;;;;;;;;;;;;;;;;;;5053008;28;1906;-59
2022/04/05 09:19:37;;;;;;;;;;;;;;;;;;5052678;28;927;-59
2022/04/05 09:22:03;;;;;;;;;;;;;;;;;;5052299;28;852;-59
2022/04/05 09:24:35;;;;;;;;;;;;;;;;;;5053126;28;770;-59
2022/04/05 09:27:00;;;;;;;;;;;;;;;;;;5052664;28;927;-59
2022/04/05 09:29:39;;;;;;;;;;;;;;;;;;5053048;28;927;-59
2022/04/05 09:32:04;;;;;;;;;;;;;;;;;;5051605;28;1079;-59
2022/04/05 09:34:29;;;;;;;;;;;;;;;;;;5052104;28;1015;-59
2022/04/05 09:36:55;;;;;;;;;;;;;;;;;;5051620;28;1902;-59
2022/04/05 09:39:22;;;;;;;;;;;;;;;;;;5050347;28;1191;-60
2022/04/05 09:42:10;;;;;;;;;;;;;;;;;;5051489;28;865;-59
2022/04/05 09:44:42;;;;;;;;;;;;;;;;;;5051716;28;903;-59
2022/04/05 09:47:09;;;;;;;;;;;;;;;;;;5051355;28;866;-59
2022/04/05 09:49:36;;;;;;;;;;;;;;;;;;5051842;28;832;-59
2022/04/05 09:52:02;;;;;;;;;;;;;;;;;;5051033;28;944;-59
2022/04/05 09:54:29;;;;;;;;;;;;;;;;;;5051902;28;861;-59
2022/04/05 09:57:03;;;;;;;;;;;;;;;;;;5051270;28;1968;-60
2022/04/05 09:59:35;;;;;;;;;;;;;;;;;;5051903;28;880;-59
2022/04/05 10:02:07;;;;;;;;;;;;;;;;;;5049867;28;911;-59
2022/04/05 10:04:34;;;;;;;;;;;;;;;;;;5051510;28;862;-59
2022/04/05 10:06:59;;;;;;;;;;;;;;;;;;5051127;28;817;-59
2022/04/05 10:09:26;;;;;;;;;;;;;;;;;;5051434;28;837;-60
2022/04/05 10:11:51;;;;;;;;;;;;;;;;;;5051520;28;999;-59
2022/04/05 10:14:20;;;;;;;;;;;;;;;;;;5049707;28;1309;-60
2022/04/05 10:16:46;;;;;;;;;;;;;;;;;;5051373;28;1910;-60
2022/04/05 10:19:12;;;;;;;;;;;;;;;;;;5051107;28;930;-59
2022/04/05 10:21:39;;;;;;;;;;;;;;;;;;5051495;28;825;-59
2022/04/05 10:24:05;;;;;;;;;;;;;;;;;;5051148;28;770;-59
2022/04/05 10:26:34;;;;;;;;;;;;;;;;;;5051569;28;884;-59
2022/04/05 10:29:03;;;;;;;;;;;;;;;;;;5051746;28;853;-59
2022/04/05 10:31:40;;;;;;;;;;;;;;;;;;5051708;28;837;-59
2022/04/05 10:34:14;;;;;;;;;;;;;;;;;;5054439;28;875;-59
2022/04/05 10:36:40;;;;;;;;;;;;;;;;;;5055100;28;1889;-59
2022/04/05 10:39:26;;;;;;;;;;;;;;;;;;5054731;28;955;-59
2022/04/05 10:42:12;;;;;;;;;;;;;;;;;;5055239;28;995;-59
2022/04/05 10:44:46;;;;;;;;;;;;;;;;;;5055178;28;1030;-59
2022/04/05 10:47:12;;;;;;;;;;;;;;;;;;5054829;28;850;-59
2022/04/05 10:49:45;;;;;;;;;;;;;;;;;;5055454;28;1152;-59
2022/04/05 10:52:17;;;;;;;;;;;;;;;;;;5054290;28;945;-59
2022/04/05 10:54:43;;;;;;;;;;;;;;;;;;5055215;28;624;-59
2022/04/05 10:57:29;;;;;;;;;;;;;;;;;;5054342;28;1907;-59
2022/04/05 10:59:55;;;;;;;;;;;;;;;;;;5054702;28;821;-60
2022/04/05 11:02:27;;;;;;;;;;;;;;;;;;5054979;28;991;-59
2022/04/05 11:05:04;;;;;;;;;;;;;;;;;;5054673;28;904;-59
2022/04/05 11:07:50;;;;;;;;;;;;;;;;;;5053075;28;921;-60
2022/04/05 11:10:18;;;;;;;;;;;;;;;;;;5054343;28;1327;-59
2022/04/05 11:12:43;;;;;;;;;;;;;;;;;;5054864;28;893;-59
2022/04/05 11:15:10;;;;;;;;;;;;;;;;;;5053606;28;1132;-59
2022/04/05 11:17:37;;;;;;;;;;;;;;;;;;5054005;28;1969;-60
2022/04/05 11:20:03;;;;;;;;;;;;;;;;;;5052577;28;1329;-59
2022/04/05 11:22:30;;;;;;;;;;;;;;;;;;5054532;28;991;-59
2022/04/05 11:25:06;;;;;;;;;;;;;;;;;;5054390;28;876;-59
2022/04/05 11:27:42;;;;;;;;;;;;;;;;;;5054890;28;813;-59
2022/04/05 11:30:22;;;;;;;;;;;;;;;;;;5054298;28;854;-59
2022/04/05 11:33:06;;;;;;;;;;;;;;;;;;5054349;28;968;-60
2022/04/05 11:35:43;;;;;;;;;;;;;;;;;;5054039;28;1902;-59
2022/04/05 11:38:27;;;;;;;;;;;;;;;;;;5052663;28;845;-60
2022/04/05 11:41:19;;;;;;;;;;;;;;;;;;5053966;28;956;-60
2022/04/05 11:43:46;;;;;;;;;;;;;;;;;;5051373;28;1664;-60
2022/04/05 11:46:14;;;;;;;;;;;;;;;;;;5053695;28;801;-60
2022/04/05 11:48:41;;;;;;;;;;;;;;;;;;5053471;28;1215;-60
2022/04/05 11:51:07;;;;;;;;;;;;;;;;;;5053844;28;892;-60
2022/04/05 11:53:33;;;;;;;;;;;;;;;;;;5053708;28;856;-60
2022/04/05 11:56:06;;;;;;;;;;;;;;;;;;5051365;28;1909;-59
2022/04/05 11:58:34;;;;;;;;;;;;;;;;;;5050235;28;1161;-60
2022/04/05 12:01:00;;;;;;;;;;;;;;;;;;5046210;28;1132;-60
2022/04/05 12:03:25;;;;;;;;;;;;;;;;;;5032568;28;919;-60
2022/04/05 12:05:51;;;;;;;;;;;;;;;;;;5033221;28;880;-60
2022/04/05 12:08:16;;;;;;;;;;;;;;;;;;5033554;28;841;-59
2022/04/05 12:10:43;;;;;;;;;;;;;;;;;;5033680;28;995;-60
2022/04/05 12:13:08;;;;;;;;;;;;;;;;;;5033083;28;923;-60
2022/04/05 12:15:34;;;;;;;;;;;;;;;;;;5033229;28;1977;-60
2022/04/05 12:18:16;;;;;;;;;;;;;;;;;;5033407;28;786;-60
2022/04/05 12:20:52;;;;;;;;;;;;;;;;;;5033251;28;917;-60
2022/04/05 12:23:18;;;;;;;;;;;;;;;;;;5014998;28;1679;-60
2022/04/05 12:26:00;;;;;;;;;;;;;;;;;;5032381;28;869;-60
2022/04/05 12:28:25;;;;;;;;;;;;;;;;;;5033485;28;979;-60
2022/04/05 12:30:51;;;;;;;;;;;;;;;;;;5033500;28;1035;-59
2022/04/05 12:33:23;;;;;;;;;;;;;;;;;;5031603;28;994;-60
2022/04/05 12:35:48;;;;;;;;;;;;;;;;;;5033202;28;2232;-59
2022/04/05 12:38:13;;;;;;;;;;;;;;;;;;5032753;28;893;-60
2022/04/05 12:40:39;;;;;;;;;;;;;;;;;;5032100;28;857;-60
2022/04/05 12:43:19;;;;;;;;;;;;;;;;;;5032167;28;743;-60
2022/04/05 12:45:44;;;;;;;;;;;;;;;;;;5032301;28;896;-60
2022/04/05 12:48:11;;;;;;;;;;;;;;;;;;5030834;28;869;-60
2022/04/05 12:50:41;;;;;;;;;;;;;;;;;;5032352;28;877;-60
2022/04/05 12:53:07;;;;;;;;;;;;;;;;;;5032482;28;1045;-60
2022/04/05 12:55:34;;;;;;;;;;;;;;;;;;5029924;28;1882;-60
2022/04/05 12:57:59;;;;;;;;;;;;;;;;;;5032618;28;857;-60
2022/04/05 13:00:28;;;;;;;;;;;;;;;;;;5032323;28;837;-60
2022/04/05 13:02:54;;;;;;;;;;;;;;;;;;5032400;28;850;-60
2022/04/05 13:08:09;;;;;;;;;;;;;;;;;;5032135;28;677;-60
2022/04/05 13:10:37;;;;;;;;;;;;;;;;;;5032932;28;850;-60
2022/04/05 13:13:20;;;;;;;;;;;;;;;;;;5032006;28;1214;-60
2022/04/05 13:15:46;;;;;;;;;;;;;;;;;;5031905;28;1910;-60
2022/04/05 13:18:12;;;;;;;;;;;;;;;;;;5031794;28;876;-59
2022/04/05 13:20:38;;;;;;;;;;;;;;;;;;5032533;28;818;-59
2022/04/05 13:23:04;;;;;;;;;;;;;;;;;;5032110;28;931;-59
2022/04/05 13:25:36;;;;;;;;;;;;;;;;;;5031986;28;871;-59
2022/04/05 13:28:02;;;;;;;;;;;;;;;;;;5031689;28;983;-60
2022/04/05 13:30:27;;;;;;;;;;;;;;;;;;5031582;28;861;-60
2022/04/05 13:33:05;;;;;;;;;;;;;;;;;;5031600;28;833;-59
2022/04/05 13:35:30;;;;;;;;;;;;;;;;;;5030253;28;1912;-59
2022/04/05 13:37:55;;;;;;;;;;;;;;;;;;5031613;28;908;-59
2022/04/05 13:40:20;;;;;;;;;;;;;;;;;;5031630;28;924;-59
2022/04/05 13:42:46;;;;;;;;;;;;;;;;;;5031688;28;884;-59
2022/04/05 13:45:11;;;;;;;;;;;;;;;;;;5031422;28;916;-59
2022/04/05 13:47:38;;;;;;;;;;;;;;;;;;5030641;28;837;-59
2022/04/05 13:50:03;;;;;;;;;;;;;;;;;;5031653;28;904;-60
2022/04/05 13:52:29;;;;;;;;;;;;;;;;;;5031439;28;817;-60
2022/04/05 13:54:54;;;;;;;;;;;;;;;;;;5031776;28;797;-59
2022/04/05 13:57:20;;;;;;;;;;;;;;;;;;5031509;28;1875;-60
2022/04/05 13:59:45;;;;;;;;;;;;;;;;;;5031441;28;876;-60
2022/04/05 14:02:11;;;;;;;;;;;;;;;;;;5032288;28;892;-60
2022/04/05 14:04:36;;;;;;;;;;;;;;;;;;5029850;28;865;-59
2022/04/05 14:07:01;;;;;;;;;;;;;;;;;;5031487;28;789;-59
2022/04/05 14:09:28;;;;;;;;;;;;;;;;;;5031569;28;967;-59
2022/04/05 14:11:53;;;;;;;;;;;;;;;;;;5031793;28;854;-59
2022/04/05 14:14:18;;;;;;;;;;;;;;;;;;5030802;28;1492;-59
2022/04/05 14:16:44;;;;;;;;;;;;;;;;;;5031155;28;1914;-60
2022/04/05 14:19:09;;;;;;;;;;;;;;;;;;5030901;28;825;-60
2022/04/05 14:21:35;;;;;;;;;;;;;;;;;;5030807;28;825;-60
2022/04/05 14:24:02;;;;;;;;;;;;;;;;;;5030970;28;905;-60
2022/04/05 14:26:28;;;;;;;;;;;;;;;;;;5030582;28;999;-60
2022/04/05 14:28:56;;;;;;;;;;;;;;;;;;5031439;28;846;-60
2022/04/05 14:31:21;;;;;;;;;;;;;;;;;;5030523;28;994;-60
2022/04/05 14:33:46;;;;;;;;;;;;;;;;;;5030834;28;885;-60
2022/04/05 14:36:12;;;;;;;;;;;;;;;;;;5030708;28;1898;-60
2022/04/05 14:38:38;;;;;;;;;;;;;;;;;;5030894;28;984;-59
2022/04/05 14:41:04;;;;;;;;;;;;;;;;;;5013252;28;1452;-61
2022/04/05 14:43:29;;;;;;;;;;;;;;;;;;5030515;28;1127;-60
2022/04/05 14:45:55;;;;;;;;;;;;;;;;;;5031181;28;884;-60
2022/04/05 14:48:20;;;;;;;;;;;;;;;;;;5031035;28;913;-60
2022/04/05 14:50:46;;;;;;;;;;;;;;;;;;5031405;28;832;-59
2022/04/05 14:53:12;;;;;;;;;;;;;;;;;;5012970;28;948;-60
2022/04/05 14:55:37;;;;;;;;;;;;;;;;;;5012639;28;1906;-60
2022/04/05 14:58:02;;;;;;;;;;;;;;;;;;5031055;28;992;-60
2022/04/05 15:00:27;;;;;;;;;;;;;;;;;;5030672;28;856;-60
2022/04/05 15:02:53;;;;;;;;;;;;;;;;;;5031173;28;860;-60
2022/04/05 15:05:18;;;;;;;;;;;;;;;;;;5031246;28;896;-60
2022/04/05 15:07:44;;;;;;;;;;;;;;;;;;5013261;28;896;-60
2022/04/05 15:10:09;;;;;;;;;;;;;;;;;;5030868;28;971;-60
2022/04/05 15:12:35;;;;;;;;;;;;;;;;;;5030589;28;991;-59
2022/04/05 15:15:01;;;;;;;;;;;;;;;;;;5012879;28;1030;-60
2022/04/05 15:17:26;;;;;;;;;;;;;;;;;;5013035;28;1977;-60
2022/04/05 15:19:51;;;;;;;;;;;;;;;;;;5034109;28;759;-60
2022/04/05 15:22:17;;;;;;;;;;;;;;;;;;5034971;28;822;-60
2022/04/05 15:24:42;;;;;;;;;;;;;;;;;;5034296;28;1066;-59
2022/04/05 15:27:07;;;;;;;;;;;;;;;;;;5016692;28;778;-60
2022/04/05 15:29:37;;;;;;;;;;;;;;;;;;5034228;28;1170;-60
2022/04/05 15:32:04;;;;;;;;;;;;;;;;;;5053774;28;1118;-60
2022/04/05 15:34:29;;;;;;;;;;;;;;;;;;5054318;28;814;-60
2022/04/05 15:36:54;;;;;;;;;;;;;;;;;;5054227;28;1902;-59
2022/04/05 15:39:20;;;;;;;;;;;;;;;;;;5054307;28;1043;-60
2022/04/05 15:41:45;;;;;;;;;;;;;;;;;;5054275;28;805;-59
2022/04/05 15:44:10;;;;;;;;;;;;;;;;;;5053567;28;1141;-60
2022/04/05 15:46:36;;;;;;;;;;;;;;;;;;5053942;28;816;-60
2022/04/05 15:49:02;;;;;;;;;;;;;;;;;;5053909;28;976;-60
2022/04/05 15:51:29;;;;;;;;;;;;;;;;;;5054088;28;894;-59
2022/04/05 15:53:54;;;;;;;;;;;;;;;;;;5053934;28;959;-60
2022/04/05 15:56:20;;;;;;;;;;;;;;;;;;5036046;28;1898;-60
2022/04/05 15:58:46;;;;;;;;;;;;;;;;;;5053516;28;1010;-59
2022/04/05 16:01:11;;;;;;;;;;;;;;;;;;5053939;28;829;-60
2022/04/05 16:03:36;;;;;;;;;;;;;;;;;;5053722;28;912;-60
2022/04/05 16:06:01;;;;;;;;;;;;;;;;;;5053855;28;1062;-60
2022/04/05 16:08:27;;;;;;;;;;;;;;;;;;5053500;28;893;-60
2022/04/05 16:10:52;;;;;;;;;;;;;;;;;;5053332;28;901;-60
2022/04/05 16:13:18;;;;;;;;;;;;;;;;;;5053426;28;955;-60
2022/04/05 16:15:45;;;;;;;;;;;;;;;;;;5052568;28;1914;-61
2022/04/05 16:18:10;;;;;;;;;;;;;;;;;;5053163;28;821;-59
2022/04/05 16:20:35;;;;;;;;;;;;;;;;;;5052984;28;759;-60
2022/04/05 16:23:01;;;;;;;;;;;;;;;;;;5053529;28;1009;-59
2022/04/05 16:25:26;;;;;;;;;;;;;;;;;;5053018;28;849;-60
2022/04/05 16:27:51;;;;;;;;;;;;;;;;;;5053895;28;899;-60
2022/04/05 16:30:17;;;;;;;;;;;;;;;;;;5053303;28;844;-60
2022/04/05 16:32:42;;;;;;;;;;;;;;;;;;5053402;28;1027;-59
2022/04/05 16:35:08;;;;;;;;;;;;;;;;;;5052955;28;841;-59
2022/04/05 16:37:33;;;;;;;;;;;;;;;;;;5035189;28;1902;-60
2022/04/05 16:40:03;;;;;;;;;;;;;;;;;;5053118;28;995;-60
2022/04/05 16:42:30;;;;;;;;;;;;;;;;;;5052982;28;1101;-60
2022/04/05 16:44:56;;;;;;;;;;;;;;;;;;5052716;28;995;-60
2022/04/05 16:47:21;;;;;;;;;;;;;;;;;;5053161;28;937;-59
2022/04/05 16:49:47;;;;;;;;;;;;;;;;;;5052986;28;845;-59
2022/04/05 16:52:13;;;;;;;;;;;;;;;;;;5053143;28;917;-60
2022/04/05 16:54:38;;;;;;;;;;;;;;;;;;5052659;28;824;-60
2022/04/05 16:57:03;;;;;;;;;;;;;;;;;;5052709;28;1898;-60
2022/04/05 16:59:29;;;;;;;;;;;;;;;;;;5053089;28;955;-59
2022/04/05 17:01:54;;;;;;;;;;;;;;;;;;5052317;28;902;-59
2022/04/05 17:04:20;;;;;;;;;;;;;;;;;;5052766;28;904;-59
2022/04/05 17:06:46;;;;;;;;;;;;;;;;;;5052462;28;868;-59
2022/04/05 17:09:12;;;;;;;;;;;;;;;;;;5052624;28;829;-59
2022/04/05 17:11:37;;;;;;;;;;;;;;;;;;5052465;28;893;-60
2022/04/05 17:14:03;;;;;;;;;;;;;;;;;;5052311;28;865;-59
2022/04/05 17:16:30;;;;;;;;;;;;;;;;;;5052012;28;1981;-59
2022/04/05 17:18:55;;;;;;;;;;;;;;;;;;5032034;28;1438;-59
2022/04/05 17:21:21;;;;;;;;;;;;;;;;;;5051393;28;1034;-59
2022/04/05 17:23:46;;;;;;;;;;;;;;;;;;5052285;28;892;-59
2022/04/05 17:26:12;;;;;;;;;;;;;;;;;;5052319;28;911;-59
2022/04/05 17:28:37;;;;;;;;;;;;;;;;;;5052992;28;785;-59
2022/04/05 17:31:02;;;;;;;;;;;;;;;;;;5051945;28;920;-59
2022/04/05 17:33:28;;;;;;;;;;;;;;;;;;5052590;28;881;-59
2022/04/05 17:35:53;;;;;;;;;;;;;;;;;;5052048;28;1971;-59
2022/04/05 17:38:18;;;;;;;;;;;;;;;;;;5051956;28;848;-59
2022/04/05 17:40:44;;;;;;;;;;;;;;;;;;5052079;28;1125;-58
2022/04/05 17:43:09;;;;;;;;;;;;;;;;;;5051352;28;802;-59
2022/04/05 17:45:35;;;;;;;;;;;;;;;;;;5051838;28;836;-58
2022/04/05 17:48:00;;;;;;;;;;;;;;;;;;5051353;28;818;-59
2022/04/05 17:50:28;;;;;;;;;;;;;;;;;;5051436;28;825;-60